Time;durP1;ratioP1;P1;durP2;ratioP2;P2;SDS_P1;SDS_P2;PMS_P1;PMS_P2;Temp;Humidity;BMP_temperature;BMP_pressure;BME280_temperature;BME280_humidity;BME280_pressure;Samples;Min_cycle;Max_cycle;Signal;HPM_P1;HPM_P2
2022/05/09 00:01:53;;;;;;;17.50;5.45;;;;;;;;;;6120513;23;20028;-87
2022/05/09 00:04:20;;;;;;;24.92;5.47;;;;;;;;;;6119362;23;20018;-88
2022/05/09 00:06:47;;;;;;;20.13;5.28;;;;;;;;;;6120964;23;20152;-88
2022/05/09 00:09:13;;;;;;;19.85;5.63;;;;;;;;;;6120133;23;20045;-88
2022/05/09 00:11:39;;;;;;;18.60;6.40;;;;;;;;;;6121016;23;20025;-88
2022/05/09 00:14:05;;;;;;;25.73;5.80;;;;;;;;;;6119834;23;20025;-89
2022/05/09 00:16:34;;;;;;;22.55;5.65;;;;;;;;;;6120735;23;20399;-87
2022/05/09 00:19:05;;;;;;;19.02;6.07;;;;;;;;;;6137438;23;20045;-88
2022/05/09 00:21:36;;;;;;;28.33;5.60;;;;;;;;;;6152386;23;20068;-89
2022/05/09 00:24:03;;;;;;;24.23;5.65;;;;;;;;;;6126178;23;20014;-89
2022/05/09 00:26:32;;;;;;;21.63;5.78;;;;;;;;;;6126287;23;20775;-89
2022/05/09 00:28:59;;;;;;;21.33;5.57;;;;;;;;;;6124461;23;20017;-88
2022/05/09 00:31:25;;;;;;;17.70;6.05;;;;;;;;;;6122354;23;20446;-88
2022/05/09 00:33:52;;;;;;;20.63;5.78;;;;;;;;;;6125651;23;20025;-86
2022/05/09 00:36:18;;;;;;;24.88;6.28;;;;;;;;;;6102141;23;20102;-88
2022/05/09 00:38:45;;;;;;;17.75;5.78;;;;;;;;;;6103786;23;20017;-88
2022/05/09 00:43:56;;;;;;;21.05;5.90;;;;;;;;;;6151561;23;20017;-88
2022/05/09 00:46:23;;;;;;;20.15;5.25;;;;;;;;;;6126051;23;20095;-86
2022/05/09 00:48:50;;;;;;;23.75;6.10;;;;;;;;;;6099871;23;20117;-87
2022/05/09 00:51:18;;;;;;;24.10;6.13;;;;;;;;;;6124391;23;20574;-88
2022/05/09 00:53:45;;;;;;;16.17;6.47;;;;;;;;;;6126157;23;20394;-88
2022/05/09 00:56:17;;;;;;;22.33;5.95;;;;;;;;;;6102292;23;20044;-88
2022/05/09 00:58:47;;;;;;;21.25;5.63;;;;;;;;;;6128763;23;20013;-88
2022/05/09 01:01:14;;;;;;;23.55;5.95;;;;;;;;;;6126533;23;20043;-88
2022/05/09 01:03:46;;;;;;;19.73;6.28;;;;;;;;;;6126899;23;20020;-87
2022/05/09 01:06:12;;;;;;;17.10;5.85;;;;;;;;;;6125966;23;20017;-87
2022/05/09 01:08:38;;;;;;;25.80;6.78;;;;;;;;;;6127191;23;20009;-89
2022/05/09 01:11:09;;;;;;;24.38;6.80;;;;;;;;;;6126384;23;20447;-89
2022/05/09 01:13:36;;;;;;;17.17;5.35;;;;;;;;;;6123526;23;20135;-89
2022/05/09 01:16:04;;;;;;;20.92;6.57;;;;;;;;;;6151781;23;20465;-88
2022/05/09 01:18:30;;;;;;;19.02;6.22;;;;;;;;;;6125053;23;20466;-87
2022/05/09 01:20:56;;;;;;;27.45;7.60;;;;;;;;;;6124399;23;20290;-88
2022/05/09 01:23:22;;;;;;;19.95;6.43;;;;;;;;;;6101704;23;20508;-88
2022/05/09 01:25:49;;;;;;;25.58;7.32;;;;;;;;;;6126122;23;20049;-88
2022/05/09 01:28:16;;;;;;;24.42;5.85;;;;;;;;;;6124571;23;20016;-87
2022/05/09 01:30:56;;;;;;;28.58;7.32;;;;;;;;;;6103887;23;20013;-88
2022/05/09 01:33:33;;;;;;;28.08;6.32;;;;;;;;;;6131033;23;20024;-89
2022/05/09 01:36:19;;;;;;;28.85;7.15;;;;;;;;;;6127904;23;20056;-88
2022/05/09 01:38:55;;;;;;;33.90;6.30;;;;;;;;;;6126412;23;20024;-88
2022/05/09 01:41:21;;;;;;;20.00;6.28;;;;;;;;;;6126787;23;20517;-88
2022/05/09 01:43:49;;;;;;;22.90;6.97;;;;;;;;;;6101607;23;20342;-87
2022/05/09 01:46:20;;;;;;;29.55;7.40;;;;;;;;;;6127062;23;20385;-89
2022/05/09 01:51:31;;;;;;;30.05;7.07;;;;;;;;;;6149848;23;20031;-88
2022/05/09 01:53:57;;;;;;;24.58;7.78;;;;;;;;;;6123837;23;20056;-88
2022/05/09 01:56:25;;;;;;;28.48;6.50;;;;;;;;;;6100145;23;20024;-88
2022/05/09 01:58:52;;;;;;;21.40;6.00;;;;;;;;;;6125476;23;20032;-87
2022/05/09 02:01:18;;;;;;;23.63;6.85;;;;;;;;;;6125523;23;20016;-87
2022/05/09 02:03:47;;;;;;;20.52;6.20;;;;;;;;;;6122909;23;20091;-88
2022/05/09 02:06:17;;;;;;;19.40;6.63;;;;;;;;;;6126391;23;20370;-88
2022/05/09 02:08:44;;;;;;;22.48;6.65;;;;;;;;;;6127498;23;20092;-88
2022/05/09 02:11:10;;;;;;;25.42;6.93;;;;;;;;;;6125050;23;20454;-88
2022/05/09 02:13:36;;;;;;;18.05;6.43;;;;;;;;;;6125425;23;20040;-88
2022/05/09 02:16:02;;;;;;;22.35;6.82;;;;;;;;;;6124164;23;20025;-88
2022/05/09 02:18:28;;;;;;;23.23;7.15;;;;;;;;;;6100945;23;20012;-87
2022/05/09 02:20:54;;;;;;;21.35;6.90;;;;;;;;;;6126419;23;20398;-88
2022/05/09 02:23:20;;;;;;;19.38;6.55;;;;;;;;;;6100315;23;20020;-87
2022/05/09 02:25:46;;;;;;;23.52;6.82;;;;;;;;;;6100650;23;20013;-88
2022/05/09 02:28:14;;;;;;;25.60;7.38;;;;;;;;;;6102417;23;20013;-88
2022/05/09 02:30:41;;;;;;;20.67;6.38;;;;;;;;;;6125991;23;20461;-88
2022/05/09 02:33:08;;;;;;;21.05;6.28;;;;;;;;;;6122878;23;20434;-87
2022/05/09 02:35:34;;;;;;;21.73;7.57;;;;;;;;;;6124418;23;20100;-88
2022/05/09 02:38:00;;;;;;;18.52;6.60;;;;;;;;;;6099940;23;20017;-87
2022/05/09 02:40:27;;;;;;;21.13;6.88;;;;;;;;;;6100885;23;20051;-88
2022/05/09 02:42:53;;;;;;;21.63;7.45;;;;;;;;;;6129697;23;20636;-88
2022/05/09 02:45:20;;;;;;;23.90;7.35;;;;;;;;;;6102183;23;20056;-88
2022/05/09 02:47:47;;;;;;;23.70;7.18;;;;;;;;;;6125554;23;20013;-88
2022/05/09 02:50:23;;;;;;;23.75;7.07;;;;;;;;;;6101703;23;20355;-89
2022/05/09 02:52:50;;;;;;;29.00;7.28;;;;;;;;;;6123305;23;20012;-88
2022/05/09 02:55:17;;;;;;;24.77;7.35;;;;;;;;;;6100443;23;20016;-87
2022/05/09 02:57:43;;;;;;;24.42;7.70;;;;;;;;;;6122663;23;20060;-88
2022/05/09 03:00:11;;;;;;;26.80;8.07;;;;;;;;;;6148841;23;20009;-88
2022/05/09 03:02:37;;;;;;;27.15;7.60;;;;;;;;;;6125532;23;20060;-88
2022/05/09 03:05:04;;;;;;;26.63;7.78;;;;;;;;;;6098746;23;20383;-88
2022/05/09 03:07:30;;;;;;;24.02;7.60;;;;;;;;;;6124249;23;20096;-89
2022/05/09 03:09:57;;;;;;;24.85;8.23;;;;;;;;;;6099836;23;20059;-88
2022/05/09 03:12:23;;;;;;;21.15;7.60;;;;;;;;;;6099964;23;20206;-89
2022/05/09 03:14:49;;;;;;;31.40;7.57;;;;;;;;;;6097703;23;20053;-88
2022/05/09 03:17:16;;;;;;;27.67;6.78;;;;;;;;;;6126593;23;20024;-88
2022/05/09 03:19:42;;;;;;;22.63;7.28;;;;;;;;;;6125397;23;20013;-88
2022/05/09 03:22:08;;;;;;;20.02;6.85;;;;;;;;;;6125577;23;20554;-89
2022/05/09 03:24:35;;;;;;;27.48;7.22;;;;;;;;;;6124790;23;20024;-88
2022/05/09 03:27:06;;;;;;;20.65;6.82;;;;;;;;;;6125838;23;20025;-88
2022/05/09 03:29:32;;;;;;;22.55;7.25;;;;;;;;;;6123525;23;20041;-88
2022/05/09 03:32:00;;;;;;;25.33;7.95;;;;;;;;;;6123201;23;20017;-88
2022/05/09 03:34:26;;;;;;;18.85;7.10;;;;;;;;;;6099418;23;20147;-88
2022/05/09 03:36:53;;;;;;;29.90;7.72;;;;;;;;;;6124208;23;20049;-89
2022/05/09 03:39:19;;;;;;;18.33;7.47;;;;;;;;;;6100656;23;20078;-89
2022/05/09 03:41:45;;;;;;;25.63;7.82;;;;;;;;;;6123644;23;20028;-88
2022/05/09 03:44:11;;;;;;;18.70;7.15;;;;;;;;;;6098307;23;20044;-89
2022/05/09 03:46:37;;;;;;;23.17;7.57;;;;;;;;;;6101553;23;20096;-89
2022/05/09 03:49:04;;;;;;;29.23;7.65;;;;;;;;;;6125612;23;20587;-89
2022/05/09 03:51:30;;;;;;;23.77;6.93;;;;;;;;;;6125842;23;20012;-88
2022/05/09 03:53:56;;;;;;;27.17;8.20;;;;;;;;;;6103754;23;20020;-88
2022/05/09 03:56:22;;;;;;;28.00;8.00;;;;;;;;;;6100943;23;20017;-89
2022/05/09 03:58:48;;;;;;;26.00;7.75;;;;;;;;;;6124234;23;20068;-89
2022/05/09 04:01:14;;;;;;;21.77;8.32;;;;;;;;;;6098909;23;20021;-88
2022/05/09 04:03:41;;;;;;;28.95;8.18;;;;;;;;;;6100675;23;20017;-89
2022/05/09 04:06:08;;;;;;;22.98;7.75;;;;;;;;;;6123864;23;20024;-88
2022/05/09 04:08:34;;;;;;;22.80;7.80;;;;;;;;;;6123034;23;20009;-88
2022/05/09 04:11:00;;;;;;;28.00;7.90;;;;;;;;;;6101430;23;20009;-89
2022/05/09 04:13:26;;;;;;;23.85;7.93;;;;;;;;;;6150089;23;20013;-88
2022/05/09 04:18:38;;;;;;;16.77;8.10;;;;;;;;;;6145214;23;20095;-88
2022/05/09 04:21:05;;;;;;;21.60;8.25;;;;;;;;;;6093926;23;20021;-88
2022/05/09 04:23:31;;;;;;;25.80;8.25;;;;;;;;;;6120720;23;20028;-88
2022/05/09 04:25:57;;;;;;;24.52;8.63;;;;;;;;;;6121072;23;20025;-88
2022/05/09 04:28:23;;;;;;;22.05;8.63;;;;;;;;;;6122449;23;20013;-88
2022/05/09 04:30:50;;;;;;;22.23;8.07;;;;;;;;;;6096397;23;20220;-88
2022/05/09 04:33:16;;;;;;;22.20;8.05;;;;;;;;;;6122487;23;20052;-89
2022/05/09 04:35:43;;;;;;;21.08;8.07;;;;;;;;;;6097522;23;20017;-87
2022/05/09 04:38:23;;;;;;;18.25;8.60;;;;;;;;;;6122027;23;20455;-88
2022/05/09 04:40:54;;;;;;;27.58;8.90;;;;;;;;;;6123678;23;20458;-88
2022/05/09 04:43:21;;;;;;;21.85;9.25;;;;;;;;;;6122966;23;20453;-89
2022/05/09 04:45:48;;;;;;;23.48;9.23;;;;;;;;;;6122861;23;20013;-89
2022/05/09 04:48:15;;;;;;;19.30;9.00;;;;;;;;;;6094568;23;20050;-88
2022/05/09 04:50:41;;;;;;;23.52;8.40;;;;;;;;;;6120351;23;20017;-88
2022/05/09 04:53:08;;;;;;;23.73;9.25;;;;;;;;;;6119774;23;20017;-89
2022/05/09 04:55:34;;;;;;;28.10;9.18;;;;;;;;;;6119924;23;20060;-88
2022/05/09 04:58:00;;;;;;;23.30;9.63;;;;;;;;;;6121103;23;20020;-88
2022/05/09 05:00:27;;;;;;;27.65;9.70;;;;;;;;;;6097504;23;20028;-88
2022/05/09 05:02:55;;;;;;;23.60;9.27;;;;;;;;;;6124260;23;20020;-88
2022/05/09 05:05:22;;;;;;;29.20;9.90;;;;;;;;;;6122538;23;20087;-89
2022/05/09 05:07:48;;;;;;;26.48;9.02;;;;;;;;;;6122446;23;20021;-88
2022/05/09 05:10:15;;;;;;;22.63;9.85;;;;;;;;;;6117436;23;20100;-88
2022/05/09 05:12:41;;;;;;;27.17;10.27;;;;;;;;;;6119103;23;20020;-88
2022/05/09 05:15:08;;;;;;;27.48;9.65;;;;;;;;;;6117238;23;20012;-88
2022/05/09 05:17:34;;;;;;;26.17;10.57;;;;;;;;;;6100317;23;20013;-88
2022/05/09 05:20:02;;;;;;;26.67;10.18;;;;;;;;;;6098186;23;20200;-89
2022/05/09 05:22:28;;;;;;;30.67;10.02;;;;;;;;;;6099800;23;20083;-89
2022/05/09 05:24:55;;;;;;;29.17;10.10;;;;;;;;;;6124043;23;20450;-89
2022/05/09 05:27:21;;;;;;;28.77;10.18;;;;;;;;;;6101598;23;20016;-87
2022/05/09 05:29:49;;;;;;;33.60;10.57;;;;;;;;;;6123825;23;20119;-87
2022/05/09 05:32:23;;;;;;;29.75;11.60;;;;;;;;;;6103094;23;20485;-89
2022/05/09 05:34:50;;;;;;;24.13;10.77;;;;;;;;;;6126642;23;20017;-88
2022/05/09 05:37:16;;;;;;;27.65;10.32;;;;;;;;;;6127787;23;20274;-88
2022/05/09 05:39:44;;;;;;;25.52;10.52;;;;;;;;;;6104247;23;20024;-88
2022/05/09 05:42:11;;;;;;;33.75;10.38;;;;;;;;;;6121345;23;20017;-89
2022/05/09 05:44:37;;;;;;;32.78;11.23;;;;;;;;;;6149882;23;20031;-88
2022/05/09 05:47:10;;;;;;;26.00;9.65;;;;;;;;;;6127374;23;20081;-88
2022/05/09 05:49:37;;;;;;;24.65;9.80;;;;;;;;;;6126326;23;20080;-87
2022/05/09 05:52:04;;;;;;;24.75;10.68;;;;;;;;;;6096175;23;20117;-88
2022/05/09 05:54:31;;;;;;;34.72;10.88;;;;;;;;;;6125496;23;20021;-88
2022/05/09 05:56:57;;;;;;;34.88;11.23;;;;;;;;;;6124612;23;20461;-87
2022/05/09 05:59:25;;;;;;;22.88;9.63;;;;;;;;;;6149265;23;20100;-88
2022/05/09 06:01:52;;;;;;;20.65;10.30;;;;;;;;;;6098058;23;20183;-87
2022/05/09 06:04:18;;;;;;;27.52;9.57;;;;;;;;;;6101650;23;20021;-88
2022/05/09 06:06:45;;;;;;;29.05;11.05;;;;;;;;;;6124158;23;20088;-88
2022/05/09 06:09:12;;;;;;;27.63;9.32;;;;;;;;;;6125600;23;20083;-87
2022/05/09 06:11:41;;;;;;;29.38;11.43;;;;;;;;;;6102595;23;20446;-86
2022/05/09 06:14:08;;;;;;;27.58;10.23;;;;;;;;;;6126322;23;20017;-88
2022/05/09 06:16:34;;;;;;;28.35;10.23;;;;;;;;;;6103016;23;20016;-87
2022/05/09 06:19:01;;;;;;;33.25;10.07;;;;;;;;;;6100806;23;20047;-88
2022/05/09 06:21:28;;;;;;;26.52;9.15;;;;;;;;;;6101966;23;20095;-87
2022/05/09 06:23:54;;;;;;;28.83;9.88;;;;;;;;;;6098828;23;20009;-87
2022/05/09 06:26:22;;;;;;;30.08;9.77;;;;;;;;;;6126471;23;20439;-88
2022/05/09 06:28:48;;;;;;;31.88;10.35;;;;;;;;;;6100490;23;20406;-87
2022/05/09 06:31:14;;;;;;;26.92;9.73;;;;;;;;;;6125517;23;20450;-87
2022/05/09 06:33:40;;;;;;;25.17;9.82;;;;;;;;;;6096358;23;20035;-87
2022/05/09 06:36:07;;;;;;;26.77;9.30;;;;;;;;;;6101429;23;20161;-89
2022/05/09 06:38:34;;;;;;;26.35;9.52;;;;;;;;;;6101348;23;20079;-88
2022/05/09 06:41:01;;;;;;;24.35;8.98;;;;;;;;;;6123332;23;20020;-89
2022/05/09 06:43:28;;;;;;;22.52;8.73;;;;;;;;;;6120667;23;20013;-88
2022/05/09 06:45:54;;;;;;;19.20;8.68;;;;;;;;;;6125957;23;20350;-86
2022/05/09 06:48:20;;;;;;;15.65;8.30;;;;;;;;;;6100698;23;20295;-86
2022/05/09 06:50:47;;;;;;;18.98;8.25;;;;;;;;;;6124116;23;20009;-86
2022/05/09 06:53:13;;;;;;;28.88;9.43;;;;;;;;;;6121141;23;20458;-85
2022/05/09 06:55:39;;;;;;;24.13;8.43;;;;;;;;;;6147576;23;20787;-86
2022/05/09 06:58:07;;;;;;;21.52;8.23;;;;;;;;;;6123714;23;20275;-87
2022/05/09 07:00:33;;;;;;;24.92;8.18;;;;;;;;;;6124643;23;20443;-86
2022/05/09 07:02:59;;;;;;;26.73;8.10;;;;;;;;;;6100487;23;20013;-86
2022/05/09 07:05:25;;;;;;;20.30;7.75;;;;;;;;;;6096277;23;20097;-86
2022/05/09 07:07:51;;;;;;;22.50;8.18;;;;;;;;;;6126720;23;20017;-85
2022/05/09 07:10:18;;;;;;;20.98;7.65;;;;;;;;;;6100423;23;20319;-85
2022/05/09 07:12:45;;;;;;;19.58;6.32;;;;;;;;;;6124791;23;20020;-87
2022/05/09 07:15:12;;;;;;;25.20;6.93;;;;;;;;;;6121439;23;20039;-88
2022/05/09 07:17:38;;;;;;;25.25;7.70;;;;;;;;;;6124249;23;20096;-88
2022/05/09 07:20:05;;;;;;;23.27;7.55;;;;;;;;;;6102112;23;20035;-87
2022/05/09 07:22:31;;;;;;;18.95;7.47;;;;;;;;;;6125353;23;20049;-85
2022/05/09 07:24:58;;;;;;;22.50;6.80;;;;;;;;;;6120988;23;20049;-86
2022/05/09 07:27:24;;;;;;;19.73;7.28;;;;;;;;;;6123036;23;20013;-86
2022/05/09 07:29:50;;;;;;;21.90;7.40;;;;;;;;;;6124315;23;20020;-86
2022/05/09 07:32:16;;;;;;;18.23;6.43;;;;;;;;;;6100022;23;20042;-87
2022/05/09 07:34:43;;;;;;;18.00;6.53;;;;;;;;;;6125139;23;20107;-85
2022/05/09 07:37:09;;;;;;;24.63;6.85;;;;;;;;;;6097393;23;20023;-86
2022/05/09 07:39:35;;;;;;;19.92;6.75;;;;;;;;;;6099787;23;20068;-87
2022/05/09 07:42:01;;;;;;;16.77;6.55;;;;;;;;;;6099193;23;20477;-86
2022/05/09 07:44:27;;;;;;;19.48;6.43;;;;;;;;;;6099154;23;20013;-86
2022/05/09 07:46:53;;;;;;;17.63;6.07;;;;;;;;;;6097596;23;20021;-86
2022/05/09 07:49:20;;;;;;;21.25;6.80;;;;;;;;;;6100268;23;20459;-86
2022/05/09 07:51:46;;;;;;;14.15;5.93;;;;;;;;;;6099324;23;20454;-85
2022/05/09 07:54:12;;;;;;;16.73;7.00;;;;;;;;;;6102613;23;20056;-87
2022/05/09 07:56:38;;;;;;;17.33;6.97;;;;;;;;;;6102428;23;20042;-86
2022/05/09 07:59:04;;;;;;;20.17;6.20;;;;;;;;;;6098258;23;20016;-87
2022/05/09 08:01:30;;;;;;;17.98;6.30;;;;;;;;;;6100058;23;20432;-87
2022/05/09 08:03:58;;;;;;;18.83;6.55;;;;;;;;;;6124500;23;20019;-86
2022/05/09 08:06:25;;;;;;;18.55;6.82;;;;;;;;;;6099167;23;20067;-87
2022/05/09 08:08:51;;;;;;;22.25;7.35;;;;;;;;;;6118713;23;20237;-87
2022/05/09 08:11:17;;;;;;;14.82;6.07;;;;;;;;;;6098283;23;20510;-86
2022/05/09 08:13:43;;;;;;;18.95;6.25;;;;;;;;;;6099590;23;20092;-86
2022/05/09 08:16:10;;;;;;;18.98;5.95;;;;;;;;;;6100153;23;20056;-86
2022/05/09 08:18:36;;;;;;;17.05;5.88;;;;;;;;;;6123338;23;20016;-86
2022/05/09 08:21:03;;;;;;;17.55;5.90;;;;;;;;;;6099625;23;20019;-86
2022/05/09 08:23:30;;;;;;;19.27;6.75;;;;;;;;;;6124018;23;20338;-87
2022/05/09 08:25:57;;;;;;;19.77;5.88;;;;;;;;;;6147262;23;20425;-86
2022/05/09 08:28:23;;;;;;;19.73;6.78;;;;;;;;;;6099142;23;20092;-87
2022/05/09 08:30:51;;;;;;;17.58;5.57;;;;;;;;;;6099962;23;20099;-88
2022/05/09 08:33:21;;;;;;;12.57;5.75;;;;;;;;;;6127490;23;20127;-86
2022/05/09 08:35:48;;;;;;;17.55;6.13;;;;;;;;;;6125795;23;20043;-87
2022/05/09 08:38:14;;;;;;;17.15;5.60;;;;;;;;;;6126289;23;20513;-87
2022/05/09 08:40:40;;;;;;;16.60;5.68;;;;;;;;;;6122668;23;20013;-87
2022/05/09 08:43:27;;;;;;;19.38;5.68;;;;;;;;;;6149056;23;20100;-87
2022/05/09 08:46:19;;;;;;;17.17;6.00;;;;;;;;;;6124781;23;20024;-87
2022/05/09 08:48:48;;;;;;;15.65;5.25;;;;;;;;;;6072802;23;20135;-86
2022/05/09 08:51:19;;;;;;;21.77;5.68;;;;;;;;;;6124261;23;20346;-86
2022/05/09 08:53:51;;;;;;;15.95;5.20;;;;;;;;;;6125235;23;20020;-87
2022/05/09 08:56:17;;;;;;;17.25;6.25;;;;;;;;;;6130532;23;20651;-87
2022/05/09 08:58:49;;;;;;;17.20;5.50;;;;;;;;;;6119539;23;20017;-87
2022/05/09 09:01:15;;;;;;;11.40;4.82;;;;;;;;;;6126464;23;20017;-89
2022/05/09 09:03:44;;;;;;;17.25;5.05;;;;;;;;;;6126650;23;20045;-88
2022/05/09 09:06:34;;;;;;;15.18;4.55;;;;;;;;;;6123460;23;20096;-88
2022/05/09 09:09:18;;;;;;;20.05;4.85;;;;;;;;;;6125438;23;20013;-86
2022/05/09 09:11:56;;;;;;;15.13;4.93;;;;;;;;;;6124955;23;20013;-87
2022/05/09 09:14:41;;;;;;;16.52;4.90;;;;;;;;;;6149310;23;20470;-87
2022/05/09 09:17:24;;;;;;;9.52;4.00;;;;;;;;;;6126045;23;20060;-86
2022/05/09 09:19:59;;;;;;;10.43;3.70;;;;;;;;;;6125384;23;20016;-88
2022/05/09 09:22:25;;;;;;;13.80;3.78;;;;;;;;;;6124424;23;20355;-87
2022/05/09 09:25:08;;;;;;;9.30;3.58;;;;;;;;;;6125652;23;20024;-85
2022/05/09 09:27:34;;;;;;;11.68;3.58;;;;;;;;;;6126190;23;20060;-85
2022/05/09 09:30:08;;;;;;;11.35;4.00;;;;;;;;;;6129932;23;20013;-85
2022/05/09 09:32:36;;;;;;;13.10;4.22;;;;;;;;;;6126227;23;20832;-85
2022/05/09 09:35:09;;;;;;;14.65;3.45;;;;;;;;;;6102386;23;20017;-86
2022/05/09 09:37:47;;;;;;;18.33;3.80;;;;;;;;;;6124698;23;20278;-86
2022/05/09 09:40:13;;;;;;;12.18;3.63;;;;;;;;;;6123656;23;20017;-85
2022/05/09 09:42:39;;;;;;;12.57;3.80;;;;;;;;;;6100897;23;20020;-85
2022/05/09 09:45:25;;;;;;;13.43;3.67;;;;;;;;;;6125336;23;20013;-85
2022/05/09 09:48:05;;;;;;;14.13;3.53;;;;;;;;;;6126404;23;20052;-85
2022/05/09 09:50:31;;;;;;;13.02;4.47;;;;;;;;;;6125137;23;20044;-86
2022/05/09 09:52:59;;;;;;;17.08;3.53;;;;;;;;;;6123933;23;20105;-86
2022/05/09 09:55:40;;;;;;;12.73;3.78;;;;;;;;;;6126622;23;20013;-84
2022/05/09 09:58:21;;;;;;;13.55;3.10;;;;;;;;;;6123896;23;20083;-84
2022/05/09 10:00:47;;;;;;;13.80;3.42;;;;;;;;;;6126895;23;20083;-84
2022/05/09 10:03:21;;;;;;;9.90;3.00;;;;;;;;;;6129066;23;20019;-85
2022/05/09 10:05:48;;;;;;;10.57;3.40;;;;;;;;;;6128231;23;20048;-85
2022/05/09 10:08:33;;;;;;;7.72;2.78;;;;;;;;;;6125728;23;20013;-84
2022/05/09 10:11:13;;;;;;;13.48;2.45;;;;;;;;;;6126197;23;20121;-84
2022/05/09 10:13:47;;;;;;;11.57;3.22;;;8.90;99.90;;;;;;6126125;23;20680;-84
2022/05/09 10:16:13;;;;;;;9.82;3.33;;;;;;;;;;6127640;23;20024;-86
2022/05/09 10:18:42;;;;;;;8.07;2.70;;;;;;;;;;6127285;23;20181;-85
2022/05/09 10:27:16;;;;;;;9.55;3.00;;;;;;;;;;6152803;23;20100;-86
2022/05/09 10:29:43;;;;;;;;;;;;;;;;;;6127968;23;20017;-85
2022/05/09 10:32:11;;;;;;;11.85;2.85;;;;;;;;;;6127996;23;19918;-83
2022/05/09 10:34:45;;;;;;;13.32;3.22;;;;;;;;;;6131339;23;20017;-87
2022/05/09 10:37:13;;;;;;;11.70;2.80;;;;;;;;;;6149890;23;20120;-86
2022/05/09 10:39:51;;;;;;;14.43;3.45;;;;;;;;;;6127235;23;20431;-86
2022/05/09 10:42:21;;;;;;;12.38;2.42;;;;;;;;;;6124772;23;20017;-83
2022/05/09 10:44:53;;;;;;;8.50;2.45;;;;;;;;;;6124507;23;20013;-84
2022/05/09 10:47:34;;;;;;;6.88;2.35;;;;;;;;;;6125172;23;20017;-87
2022/05/09 10:50:00;;;;;;;9.68;2.60;;;;;;;;;;6126806;23;20017;-85
2022/05/09 10:52:29;;;;;;;8.20;2.50;;;;;;;;;;6126652;23;20063;-87
2022/05/09 10:54:59;;;;;;;11.15;2.90;;;;;;;;;;6125548;23;20016;-86
2022/05/09 10:57:31;;;;;;;13.10;2.60;;;17.80;78.30;;;;;;6124193;23;20625;-86
2022/05/09 11:00:03;;;;;;;13.88;3.10;;;;;;;;;;6126149;23;20013;-86
2022/05/09 11:02:29;;;;;;;;;;;;;;;;;;6125102;23;20025;-86
2022/05/09 11:04:56;;;;;;;14.70;2.15;;;;;;;;;;6126497;23;19954;-86
2022/05/09 11:07:25;;;;;;;9.70;2.65;;;;;;;;;;6132137;23;20049;-86
2022/05/09 11:10:06;;;;;;;10.27;2.80;;;;;;;;;;6124911;23;20241;-86
2022/05/09 11:12:41;;;;;;;8.30;2.38;;;;;;;;;;6150396;23;20048;-86
2022/05/09 11:15:16;;;;;;;12.75;2.63;;;;;;;;;;6126021;23;20088;-86
2022/05/09 11:17:54;;;;;;;8.02;2.30;;;;;;;;;;6126053;23;20016;-86
2022/05/09 11:20:29;;;;;;;7.30;2.47;;;;;;;;;;6126181;23;20017;-85
2022/05/09 11:23:08;;;;;;;8.70;2.65;;;;;;;;;;6123987;23;20017;-86
2022/05/09 11:25:53;;;;;;;8.25;2.67;;;;;;;;;;6126061;23;20063;-85
2022/05/09 11:28:38;;;;;;;10.68;2.97;;;;;;;;;;6127005;23;20020;-86
2022/05/09 11:31:23;;;;;;;9.18;2.65;;;;;;;;;;6125810;23;20020;-87
2022/05/09 11:34:08;;;;;;;9.45;2.40;;;;;;;;;;6150654;23;20092;-85
2022/05/09 11:36:34;;;;;;;9.73;2.90;;;;;;;;;;6126734;23;20016;-85
2022/05/09 11:39:00;;;;;;;7.25;2.40;;;;;;;;;;6125024;23;20457;-85
2022/05/09 11:41:35;;;;;;;10.45;3.15;;;;;;;;;;6130352;23;20049;-86
2022/05/09 11:44:01;;;;;;;11.07;2.63;;;;;;;;;;6149577;23;20100;-86
2022/05/09 11:46:39;;;;;;;7.22;2.35;;;;;;;;;;6124668;23;20023;-86
2022/05/09 11:49:24;;;;;;;10.70;2.60;;;;;;;;;;6125483;23;20096;-87
2022/05/09 11:51:56;;;;;;;8.90;2.28;;;;;;;;;;6125660;23;20020;-86
2022/05/09 11:54:33;;;;;;;10.20;2.55;;;;;;;;;;6125721;23;20132;-85
2022/05/09 11:57:22;;;;;;;12.10;2.88;;;;;;;;;;6123651;23;20131;-85
2022/05/09 11:59:50;;;;;;;7.88;2.47;;;;;;;;;;6108618;23;20012;-86
2022/05/09 12:02:37;;;;;;;9.55;2.65;;;;;;;;;;6126734;23;20080;-84
2022/05/09 12:05:27;;;;;;;13.35;2.53;;;;;;;;;;6098882;23;20009;-86
2022/05/09 12:07:57;;;;;;;8.15;3.00;;;;;;;;;;6060225;23;20124;-86
2022/05/09 12:10:28;;;;;;;8.82;2.78;;;;;;;;;;6125612;23;20145;-85
2022/05/09 12:12:59;;;;;;;10.23;2.50;;;;;;;;;;6128126;23;20013;-84
2022/05/09 12:15:25;;;;;;;8.50;2.50;;;;;;;;;;6130517;23;20013;-86
2022/05/09 12:18:00;;;;;;;9.73;2.53;;;;;;;;;;6126855;23;20016;-85
2022/05/09 12:20:27;;;;;;;8.00;3.15;;;;;;;;;;6128571;23;20052;-85
2022/05/09 12:23:01;;;;;;;7.60;2.50;;;;;;;;;;6150000;23;20017;-85
2022/05/09 12:25:38;;;;;;;8.10;3.03;;;;;;;;;;6100507;23;20040;-85
2022/05/09 12:28:04;;;;;;;7.28;2.78;;;;;;;;;;6152382;23;20053;-85
2022/05/09 12:30:47;;;;;;;6.78;2.15;;;;;;;;;;6151525;23;20589;-87
2022/05/09 12:33:32;;;;;;;9.23;2.63;;;19.00;59.60;;;;;;6149773;23;20513;-87
2022/05/09 12:36:00;;;;;;;8.15;2.63;;;;;;;;;;6147848;23;20088;-86
2022/05/09 12:38:35;;;;;;;9.43;2.70;;;21.30;51.80;;;;;;6150005;23;20013;-85
2022/05/09 12:41:07;;;;;;;8.63;2.65;;;21.50;51.60;;;;;;6127137;23;20013;-86
2022/05/09 12:43:34;;;;;;;;;;;21.50;52.00;;;;;;6124162;23;20017;-87
2022/05/09 12:46:03;;;;;;;7.32;2.67;;;21.60;53.50;;;;;;6123782;23;20190;-86
2022/05/09 12:48:29;;;;;;;19.80;3.85;;;21.60;52.40;;;;;;6149430;23;20091;-86
2022/05/09 12:51:03;;;;;;;8.32;2.60;;;21.60;51.50;;;;;;6077539;23;20016;-86
2022/05/09 12:53:32;;;;;;;10.38;2.40;;;21.60;51.10;;;;;;6125136;23;20017;-86
2022/05/09 12:55:58;;;;;;;9.35;2.70;;;21.70;51.60;;;;;;6124719;23;20017;-85
2022/05/09 12:58:30;;;;;;;5.97;2.53;;;21.80;49.70;;;;;;6076424;23;20045;-85
2022/05/09 13:01:11;;;;;;;10.52;2.65;;;21.90;49.50;;;;;;6147947;23;20021;-86
2022/05/09 13:03:45;;;;;;;11.50;2.90;;;21.90;49.60;;;;;;6121842;23;20009;-85
2022/05/09 13:06:16;;;;;;;12.18;2.92;;;;;;;;;;6101553;23;20021;-87
2022/05/09 13:08:42;;;;;;;8.80;2.83;;;;;;;;;;6149647;23;20021;-86
2022/05/09 13:11:14;;;;;;;6.78;2.47;;;;;;;;;;6145450;23;20408;-87
2022/05/09 13:13:44;;;;;;;;;;;22.10;48.70;;;;;;6150518;23;20505;-87
2022/05/09 13:16:17;;;;;;;9.60;2.70;;;22.70;49.40;;;;;;6122781;23;20337;-86
2022/05/09 13:18:45;;;;;;;9.90;2.33;;;22.60;48.70;;;;;;6106891;23;20488;-84
2022/05/09 13:21:11;;;;;;;9.23;2.47;;;22.70;48.60;;;;;;6126171;23;20486;-85
2022/05/09 13:23:41;;;;;;;8.40;2.45;;;22.70;48.70;;;;;;6100867;23;20547;-85
2022/05/09 13:26:09;;;;;;;11.13;2.60;;;;;;;;;;6150311;23;20043;-86
2022/05/09 13:28:47;;;;;;;17.73;2.88;;;;;;;;;;6146506;23;20101;-84
2022/05/09 13:31:24;;;;;;;10.48;2.50;;;;;;;;;;6150382;23;20017;-85
2022/05/09 13:33:51;;;;;;;7.07;2.25;;;;;;;;;;6149622;23;20023;-85
2022/05/09 13:36:20;;;;;;;8.40;2.50;;;;;;;;;;6149233;23;20021;-88
2022/05/09 13:38:47;;;;;;;9.52;2.80;;;;;;;;;;6147434;23;20358;-85
2022/05/09 13:41:20;;;;;;;7.50;2.67;;;;;;;;;;6095887;23;20049;-85
2022/05/09 13:43:47;;;;;;;16.05;3.42;;;;;;;;;;6146429;23;20351;-86
2022/05/09 13:46:22;;;;;;;10.75;2.40;;;;;;;;;;6149188;23;20350;-85
2022/05/09 13:48:53;;;;;;;9.55;2.65;;;;;;;;;;6145583;23;20017;-85
2022/05/09 13:51:28;;;;;;;9.65;2.70;;;;;;;;;;6146585;23;20036;-85
2022/05/09 13:53:56;;;;;;;11.98;2.58;;;;;;;;;;6145393;23;20039;-85
2022/05/09 13:56:27;;;;;;;10.13;2.50;;;;;;;;;;6145232;23;20016;-85
2022/05/09 13:58:55;;;;;;;8.95;2.72;;;;;;;;;;6147351;23;20025;-85
2022/05/09 14:01:22;;;;;;;11.13;2.35;;;;;;;;;;6144995;23;20021;-85
2022/05/09 14:03:49;;;;;;;8.80;2.33;;;;;;;;;;6146295;23;20466;-85
2022/05/09 14:06:21;;;;;;;13.70;2.40;;;;;;;;;;6147141;23;20017;-86
2022/05/09 14:08:47;;;;;;;;;;;;;;;;;;6147132;23;20324;-87
2022/05/09 14:11:14;;;;;;;7.45;2.58;;;;;;;;;;6121458;23;19912;-86
2022/05/09 14:13:44;;;;;;;6.43;2.28;;;;;;;;;;6144542;23;20021;-84
2022/05/09 14:16:16;;;;;;;8.02;2.10;;;;;;;;;;6143360;23;20541;-86
2022/05/09 14:18:45;;;;;;;13.07;2.25;;;22.70;48.20;;;;;;6145808;23;20027;-86
2022/05/09 14:21:24;;;;;;;7.95;2.28;;;24.20;43.80;;;;;;6121076;23;20013;-85
2022/05/09 14:23:57;;;;;;;8.10;2.00;;;24.20;45.40;;;;;;6121772;23;20327;-85
2022/05/09 14:32:06;;;;;;;8.73;1.80;;;;;;;;;;6146200;23;20080;-85
2022/05/09 14:34:37;;;;;;;5.50;2.03;;;25.00;42.00;;;;;;6144010;23;20021;-86
2022/05/09 14:37:28;;;;;;;8.02;2.33;;;25.70;40.70;;;;;;6147191;23;20017;-85
2022/05/09 14:40:02;;;;;;;5.18;2.00;;;25.80;40.90;;;;;;6149883;23;20025;-86
2022/05/09 14:42:33;;;;;;;5.93;1.63;;;25.90;40.00;;;;;;6149195;23;20021;-85
2022/05/09 14:45:11;;;;;;;5.45;2.08;;;25.80;39.70;;;;;;6102549;23;20020;-85
2022/05/09 14:51:02;;;;;;;8.15;2.15;;;25.30;39.40;;;;;;6150164;23;20358;-86
2022/05/09 14:53:30;;;;;;;8.50;2.40;;;25.00;39.20;;;;;;6100140;23;20013;-86
2022/05/09 14:59:24;;;;;;;7.90;2.20;;;24.80;39.20;;;;;;6150769;23;20021;-86
2022/05/09 15:02:18;;;;;;;8.00;1.90;;;25.10;41.00;;;;;;5979217;23;20030;-86